sensor_id;sensor_type;location;lat;lon;timestamp;P1;durP1;ratioP1;P2;durP2;ratioP2
82635;SDS011;72317;37.280;-121.948;2023-12-04T00:00:05;4.85;;;1.58;;
82635;SDS011;72317;37.280;-121.948;2023-12-04T00:02:33;6.45;;;1.83;;
82635;SDS011;72317;37.280;-121.948;2023-12-04T00:04:59;4.80;;;1.38;;
82635;SDS011;72317;37.280;-121.948;2023-12-04T00:07:26;5.43;;;1.60;;
82635;SDS011;72317;37.280;-121.948;2023-12-04T00:09:53;3.60;;;1.70;;
82635;SDS011;72317;37.280;-121.948;2023-12-04T00:12:19;4.72;;;1.70;;
82635;SDS011;72317;37.280;-121.948;2023-12-04T00:14:46;8.60;;;2.08;;
82635;SDS011;72317;37.280;-121.948;2023-12-04T00:17:13;6.68;;;1.95;;
82635;SDS011;72317;37.280;-121.948;2023-12-04T00:19:40;5.88;;;1.77;;
82635;SDS011;72317;37.280;-121.948;2023-12-04T00:22:06;5.95;;;1.85;;
82635;SDS011;72317;37.280;-121.948;2023-12-04T00:24:33;4.93;;;1.65;;
82635;SDS011;72317;37.280;-121.948;2023-12-04T00:27:00;9.68;;;2.28;;
82635;SDS011;72317;37.280;-121.948;2023-12-04T00:29:26;6.60;;;1.83;;
82635;SDS011;72317;37.280;-121.948;2023-12-04T00:31:53;6.18;;;1.67;;
82635;SDS011;72317;37.280;-121.948;2023-12-04T00:34:22;5.30;;;1.75;;
82635;SDS011;72317;37.280;-121.948;2023-12-04T00:36:49;10.18;;;2.00;;
82635;SDS011;72317;37.280;-121.948;2023-12-04T00:39:15;6.43;;;1.90;;
82635;SDS011;72317;37.280;-121.948;2023-12-04T00:41:42;6.63;;;1.70;;
82635;SDS011;72317;37.280;-121.948;2023-12-04T00:44:09;7.85;;;2.40;;
82635;SDS011;72317;37.280;-121.948;2023-12-04T00:46:36;8.00;;;2.30;;
82635;SDS011;72317;37.280;-121.948;2023-12-04T00:49:02;6.00;;;2.00;;
82635;SDS011;72317;37.280;-121.948;2023-12-04T00:51:31;5.40;;;2.03;;
82635;SDS011;72317;37.280;-121.948;2023-12-04T00:54:03;7.03;;;2.13;;
82635;SDS011;72317;37.280;-121.948;2023-12-04T00:56:29;4.30;;;1.75;;
82635;SDS011;72317;37.280;-121.948;2023-12-04T00:58:56;6.85;;;2.13;;
82635;SDS011;72317;37.280;-121.948;2023-12-04T01:01:23;5.97;;;2.20;;
82635;SDS011;72317;37.280;-121.948;2023-12-04T01:03:50;6.43;;;2.40;;
82635;SDS011;72317;37.280;-121.948;2023-12-04T01:06:21;5.20;;;2.35;;
82635;SDS011;72317;37.280;-121.948;2023-12-04T01:08:48;8.10;;;3.00;;
82635;SDS011;72317;37.280;-121.948;2023-12-04T01:11:16;5.55;;;2.20;;
82635;SDS011;72317;37.280;-121.948;2023-12-04T01:13:44;6.28;;;2.10;;
82635;SDS011;72317;37.280;-121.948;2023-12-04T01:16:11;7.28;;;1.95;;
82635;SDS011;72317;37.280;-121.948;2023-12-04T01:18:37;6.57;;;2.13;;
82635;SDS011;72317;37.280;-121.948;2023-12-04T01:21:04;6.00;;;1.80;;
82635;SDS011;72317;37.280;-121.948;2023-12-04T01:23:31;6.78;;;1.90;;
82635;SDS011;72317;37.280;-121.948;2023-12-04T01:25:58;5.88;;;2.42;;
82635;SDS011;72317;37.280;-121.948;2023-12-04T01:28:25;5.22;;;2.28;;
82635;SDS011;72317;37.280;-121.948;2023-12-04T01:30:51;6.85;;;2.00;;
82635;SDS011;72317;37.280;-121.948;2023-12-04T01:33:18;5.97;;;2.20;;
82635;SDS011;72317;37.280;-121.948;2023-12-04T01:35:44;9.48;;;2.65;;
82635;SDS011;72317;37.280;-121.948;2023-12-04T01:38:11;8.32;;;2.50;;
82635;SDS011;72317;37.280;-121.948;2023-12-04T01:40:37;7.60;;;2.38;;
82635;SDS011;72317;37.280;-121.948;2023-12-04T01:43:04;7.10;;;2.20;;
82635;SDS011;72317;37.280;-121.948;2023-12-04T01:45:30;5.90;;;2.40;;
82635;SDS011;72317;37.280;-121.948;2023-12-04T01:47:57;5.70;;;2.85;;
82635;SDS011;72317;37.280;-121.948;2023-12-04T01:50:24;7.13;;;2.63;;
82635;SDS011;72317;37.280;-121.948;2023-12-04T01:52:51;6.95;;;3.00;;
82635;SDS011;72317;37.280;-121.948;2023-12-04T01:55:18;5.53;;;3.17;;
82635;SDS011;72317;37.280;-121.948;2023-12-04T01:57:45;7.95;;;2.90;;
82635;SDS011;72317;37.280;-121.948;2023-12-04T02:00:12;8.38;;;3.00;;
82635;SDS011;72317;37.280;-121.948;2023-12-04T02:02:40;12.15;;;3.03;;
82635;SDS011;72317;37.280;-121.948;2023-12-04T02:05:09;7.70;;;2.88;;
82635;SDS011;72317;37.280;-121.948;2023-12-04T02:07:37;6.85;;;3.15;;
82635;SDS011;72317;37.280;-121.948;2023-12-04T02:10:06;9.30;;;2.67;;
82635;SDS011;72317;37.280;-121.948;2023-12-04T02:12:32;7.40;;;2.60;;
82635;SDS011;72317;37.280;-121.948;2023-12-04T02:14:59;6.72;;;2.50;;
82635;SDS011;72317;37.280;-121.948;2023-12-04T02:17:25;7.18;;;3.00;;
82635;SDS011;72317;37.280;-121.948;2023-12-04T02:19:53;7.40;;;2.90;;
82635;SDS011;72317;37.280;-121.948;2023-12-04T02:22:20;9.18;;;3.30;;
82635;SDS011;72317;37.280;-121.948;2023-12-04T02:24:46;6.25;;;2.50;;
82635;SDS011;72317;37.280;-121.948;2023-12-04T02:28:13;7.75;;;2.70;;
82635;SDS011;72317;37.280;-121.948;2023-12-04T02:30:14;4.88;;;2.40;;
82635;SDS011;72317;37.280;-121.948;2023-12-04T02:32:47;7.20;;;3.10;;
82635;SDS011;72317;37.280;-121.948;2023-12-04T02:35:14;9.38;;;3.53;;
82635;SDS011;72317;37.280;-121.948;2023-12-04T02:37:46;7.95;;;3.63;;
82635;SDS011;72317;37.280;-121.948;2023-12-04T02:40:14;7.32;;;3.30;;
82635;SDS011;72317;37.280;-121.948;2023-12-04T02:42:41;10.07;;;3.35;;
82635;SDS011;72317;37.280;-121.948;2023-12-04T02:45:08;8.45;;;3.70;;
82635;SDS011;72317;37.280;-121.948;2023-12-04T02:47:35;10.40;;;3.85;;
82635;SDS011;72317;37.280;-121.948;2023-12-04T02:50:02;8.98;;;3.15;;
82635;SDS011;72317;37.280;-121.948;2023-12-04T02:52:29;10.05;;;4.03;;
82635;SDS011;72317;37.280;-121.948;2023-12-04T02:54:55;13.88;;;5.25;;
82635;SDS011;72317;37.280;-121.948;2023-12-04T02:57:22;10.48;;;5.20;;
82635;SDS011;72317;37.280;-121.948;2023-12-04T02:59:49;12.52;;;5.75;;
82635;SDS011;72317;37.280;-121.948;2023-12-04T03:02:16;14.18;;;6.28;;
82635;SDS011;72317;37.280;-121.948;2023-12-04T03:04:44;12.98;;;7.00;;
82635;SDS011;72317;37.280;-121.948;2023-12-04T03:07:12;10.85;;;6.10;;
82635;SDS011;72317;37.280;-121.948;2023-12-04T03:09:38;11.98;;;5.90;;
82635;SDS011;72317;37.280;-121.948;2023-12-04T03:12:05;11.50;;;6.25;;
82635;SDS011;72317;37.280;-121.948;2023-12-04T03:14:33;11.05;;;6.13;;
82635;SDS011;72317;37.280;-121.948;2023-12-04T03:17:00;8.80;;;5.63;;
82635;SDS011;72317;37.280;-121.948;2023-12-04T03:19:27;11.70;;;6.20;;
82635;SDS011;72317;37.280;-121.948;2023-12-04T03:21:53;14.77;;;6.18;;
82635;SDS011;72317;37.280;-121.948;2023-12-04T03:24:19;10.50;;;5.43;;
82635;SDS011;72317;37.280;-121.948;2023-12-04T03:26:46;11.75;;;5.45;;
82635;SDS011;72317;37.280;-121.948;2023-12-04T03:29:12;12.85;;;5.53;;
82635;SDS011;72317;37.280;-121.948;2023-12-04T03:31:38;11.77;;;5.38;;
82635;SDS011;72317;37.280;-121.948;2023-12-04T03:34:05;10.55;;;5.30;;
82635;SDS011;72317;37.280;-121.948;2023-12-04T03:36:31;12.25;;;5.00;;
82635;SDS011;72317;37.280;-121.948;2023-12-04T03:38:58;12.43;;;5.78;;
82635;SDS011;72317;37.280;-121.948;2023-12-04T03:41:24;11.82;;;5.18;;
82635;SDS011;72317;37.280;-121.948;2023-12-04T03:43:51;11.93;;;5.60;;
82635;SDS011;72317;37.280;-121.948;2023-12-04T03:46:18;11.18;;;5.25;;
82635;SDS011;72317;37.280;-121.948;2023-12-04T03:48:44;12.18;;;5.03;;
82635;SDS011;72317;37.280;-121.948;2023-12-04T03:51:11;11.50;;;5.50;;
82635;SDS011;72317;37.280;-121.948;2023-12-04T03:53:37;10.15;;;4.47;;
82635;SDS011;72317;37.280;-121.948;2023-12-04T03:56:03;10.27;;;4.72;;
82635;SDS011;72317;37.280;-121.948;2023-12-04T03:58:30;9.88;;;4.45;;
82635;SDS011;72317;37.280;-121.948;2023-12-04T04:00:57;15.15;;;4.68;;
82635;SDS011;72317;37.280;-121.948;2023-12-04T04:03:23;14.73;;;5.70;;
82635;SDS011;72317;37.280;-121.948;2023-12-04T04:05:49;11.23;;;5.30;;
82635;SDS011;72317;37.280;-121.948;2023-12-04T04:08:15;12.73;;;6.07;;
82635;SDS011;72317;37.280;-121.948;2023-12-04T04:10:42;15.55;;;5.40;;
82635;SDS011;72317;37.280;-121.948;2023-12-04T04:13:08;15.55;;;6.13;;
82635;SDS011;72317;37.280;-121.948;2023-12-04T04:15:35;12.35;;;6.50;;
82635;SDS011;72317;37.280;-121.948;2023-12-04T04:18:01;13.70;;;5.78;;
82635;SDS011;72317;37.280;-121.948;2023-12-04T04:20:27;11.00;;;5.78;;
82635;SDS011;72317;37.280;-121.948;2023-12-04T04:22:53;11.15;;;5.40;;
82635;SDS011;72317;37.280;-121.948;2023-12-04T04:25:19;11.10;;;5.75;;
82635;SDS011;72317;37.280;-121.948;2023-12-04T04:27:47;11.63;;;5.53;;
82635;SDS011;72317;37.280;-121.948;2023-12-04T04:30:14;12.27;;;5.38;;
82635;SDS011;72317;37.280;-121.948;2023-12-04T04:32:40;11.40;;;5.28;;
82635;SDS011;72317;37.280;-121.948;2023-12-04T04:35:07;10.82;;;4.85;;
82635;SDS011;72317;37.280;-121.948;2023-12-04T04:37:33;9.30;;;5.00;;
82635;SDS011;72317;37.280;-121.948;2023-12-04T04:40:00;10.77;;;5.18;;
82635;SDS011;72317;37.280;-121.948;2023-12-04T04:42:27;9.32;;;5.00;;
82635;SDS011;72317;37.280;-121.948;2023-12-04T04:44:53;11.05;;;5.32;;
82635;SDS011;72317;37.280;-121.948;2023-12-04T04:47:19;15.48;;;6.85;;
82635;SDS011;72317;37.280;-121.948;2023-12-04T04:49:45;12.48;;;6.22;;
82635;SDS011;72317;37.280;-121.948;2023-12-04T04:52:11;11.77;;;6.40;;
82635;SDS011;72317;37.280;-121.948;2023-12-04T04:54:38;13.88;;;6.55;;
82635;SDS011;72317;37.280;-121.948;2023-12-04T04:57:04;10.18;;;5.95;;
82635;SDS011;72317;37.280;-121.948;2023-12-04T04:59:30;9.85;;;5.40;;
82635;SDS011;72317;37.280;-121.948;2023-12-04T05:01:57;10.40;;;5.70;;
82635;SDS011;72317;37.280;-121.948;2023-12-04T05:04:23;10.40;;;5.30;;
82635;SDS011;72317;37.280;-121.948;2023-12-04T05:06:49;10.45;;;5.00;;
82635;SDS011;72317;37.280;-121.948;2023-12-04T05:09:16;9.50;;;4.95;;
82635;SDS011;72317;37.280;-121.948;2023-12-04T05:11:42;10.35;;;5.15;;
82635;SDS011;72317;37.280;-121.948;2023-12-04T05:14:08;10.13;;;4.30;;
82635;SDS011;72317;37.280;-121.948;2023-12-04T05:16:34;8.75;;;4.55;;
82635;SDS011;72317;37.280;-121.948;2023-12-04T05:19:00;10.80;;;4.65;;
82635;SDS011;72317;37.280;-121.948;2023-12-04T05:21:26;9.68;;;4.93;;
82635;SDS011;72317;37.280;-121.948;2023-12-04T05:23:52;9.63;;;4.75;;
82635;SDS011;72317;37.280;-121.948;2023-12-04T05:26:18;8.27;;;4.40;;
82635;SDS011;72317;37.280;-121.948;2023-12-04T05:28:45;12.48;;;4.60;;
82635;SDS011;72317;37.280;-121.948;2023-12-04T05:31:11;9.27;;;4.60;;
82635;SDS011;72317;37.280;-121.948;2023-12-04T05:33:37;8.35;;;5.18;;
82635;SDS011;72317;37.280;-121.948;2023-12-04T05:36:04;11.07;;;4.95;;
82635;SDS011;72317;37.280;-121.948;2023-12-04T05:38:32;9.32;;;4.38;;
82635;SDS011;72317;37.280;-121.948;2023-12-04T05:40:58;9.57;;;4.35;;
82635;SDS011;72317;37.280;-121.948;2023-12-04T05:43:25;8.93;;;4.38;;
82635;SDS011;72317;37.280;-121.948;2023-12-04T05:45:51;8.35;;;4.10;;
82635;SDS011;72317;37.280;-121.948;2023-12-04T05:48:17;9.45;;;4.40;;
82635;SDS011;72317;37.280;-121.948;2023-12-04T05:50:43;8.85;;;3.83;;
82635;SDS011;72317;37.280;-121.948;2023-12-04T05:53:11;11.90;;;4.68;;
82635;SDS011;72317;37.280;-121.948;2023-12-04T05:55:37;9.85;;;4.43;;
82635;SDS011;72317;37.280;-121.948;2023-12-04T05:58:03;9.85;;;4.40;;
82635;SDS011;72317;37.280;-121.948;2023-12-04T06:00:29;10.93;;;4.60;;
82635;SDS011;72317;37.280;-121.948;2023-12-04T06:02:55;8.68;;;4.38;;
82635;SDS011;72317;37.280;-121.948;2023-12-04T06:05:21;9.73;;;4.07;;
82635;SDS011;72317;37.280;-121.948;2023-12-04T06:07:48;9.35;;;4.35;;
82635;SDS011;72317;37.280;-121.948;2023-12-04T06:10:14;7.22;;;3.70;;
82635;SDS011;72317;37.280;-121.948;2023-12-04T06:12:41;10.00;;;4.15;;
82635;SDS011;72317;37.280;-121.948;2023-12-04T06:15:07;11.35;;;4.50;;
82635;SDS011;72317;37.280;-121.948;2023-12-04T06:17:33;7.82;;;4.15;;
82635;SDS011;72317;37.280;-121.948;2023-12-04T06:19:59;8.75;;;3.70;;
82635;SDS011;72317;37.280;-121.948;2023-12-04T06:22:26;12.70;;;4.63;;
82635;SDS011;72317;37.280;-121.948;2023-12-04T06:24:52;9.20;;;4.80;;
82635;SDS011;72317;37.280;-121.948;2023-12-04T06:27:18;11.73;;;5.00;;
82635;SDS011;72317;37.280;-121.948;2023-12-04T06:29:45;13.55;;;4.88;;
82635;SDS011;72317;37.280;-121.948;2023-12-04T06:32:12;9.60;;;4.63;;
82635;SDS011;72317;37.280;-121.948;2023-12-04T06:34:39;8.40;;;5.03;;
82635;SDS011;72317;37.280;-121.948;2023-12-04T06:37:09;9.15;;;4.93;;
82635;SDS011;72317;37.280;-121.948;2023-12-04T06:39:37;10.13;;;4.90;;
82635;SDS011;72317;37.280;-121.948;2023-12-04T06:42:05;10.27;;;5.00;;
82635;SDS011;72317;37.280;-121.948;2023-12-04T06:44:32;10.48;;;5.03;;
82635;SDS011;72317;37.280;-121.948;2023-12-04T06:47:02;7.75;;;4.60;;
82635;SDS011;72317;37.280;-121.948;2023-12-04T06:49:32;9.57;;;4.70;;
82635;SDS011;72317;37.280;-121.948;2023-12-04T06:51:58;9.18;;;4.43;;
82635;SDS011;72317;37.280;-121.948;2023-12-04T06:54:25;7.88;;;3.90;;
82635;SDS011;72317;37.280;-121.948;2023-12-04T06:56:52;12.23;;;3.83;;
82635;SDS011;72317;37.280;-121.948;2023-12-04T06:59:18;7.68;;;4.18;;
82635;SDS011;72317;37.280;-121.948;2023-12-04T07:01:45;8.32;;;3.70;;
82635;SDS011;72317;37.280;-121.948;2023-12-04T07:04:11;10.13;;;4.07;;
82635;SDS011;72317;37.280;-121.948;2023-12-04T07:06:38;9.98;;;4.07;;
82635;SDS011;72317;37.280;-121.948;2023-12-04T07:09:05;10.32;;;4.80;;
82635;SDS011;72317;37.280;-121.948;2023-12-04T07:11:35;12.40;;;5.78;;
82635;SDS011;72317;37.280;-121.948;2023-12-04T07:14:01;14.07;;;6.13;;
82635;SDS011;72317;37.280;-121.948;2023-12-04T07:16:28;10.98;;;6.63;;
82635;SDS011;72317;37.280;-121.948;2023-12-04T07:18:54;12.95;;;6.75;;
82635;SDS011;72317;37.280;-121.948;2023-12-04T07:21:20;13.63;;;6.95;;
82635;SDS011;72317;37.280;-121.948;2023-12-04T07:23:47;10.50;;;7.07;;
82635;SDS011;72317;37.280;-121.948;2023-12-04T07:26:13;11.88;;;6.95;;
82635;SDS011;72317;37.280;-121.948;2023-12-04T07:28:39;10.82;;;7.20;;
82635;SDS011;72317;37.280;-121.948;2023-12-04T07:31:05;12.80;;;6.65;;
82635;SDS011;72317;37.280;-121.948;2023-12-04T07:33:31;13.00;;;6.72;;
82635;SDS011;72317;37.280;-121.948;2023-12-04T07:35:57;8.13;;;5.20;;
82635;SDS011;72317;37.280;-121.948;2023-12-04T07:38:24;10.32;;;5.25;;
82635;SDS011;72317;37.280;-121.948;2023-12-04T07:40:50;9.27;;;5.10;;
82635;SDS011;72317;37.280;-121.948;2023-12-04T07:43:16;6.65;;;4.18;;
82635;SDS011;72317;37.280;-121.948;2023-12-04T07:45:43;8.00;;;3.80;;
82635;SDS011;72317;37.280;-121.948;2023-12-04T07:48:09;6.10;;;4.10;;
82635;SDS011;72317;37.280;-121.948;2023-12-04T07:50:35;7.20;;;3.40;;
82635;SDS011;72317;37.280;-121.948;2023-12-04T07:53:03;7.45;;;4.38;;
82635;SDS011;72317;37.280;-121.948;2023-12-04T07:55:29;7.10;;;3.92;;
82635;SDS011;72317;37.280;-121.948;2023-12-04T07:57:55;7.07;;;3.95;;
82635;SDS011;72317;37.280;-121.948;2023-12-04T08:00:21;8.00;;;3.80;;
82635;SDS011;72317;37.280;-121.948;2023-12-04T08:02:51;7.40;;;3.40;;
82635;SDS011;72317;37.280;-121.948;2023-12-04T08:05:17;5.78;;;3.45;;
82635;SDS011;72317;37.280;-121.948;2023-12-04T08:07:43;9.10;;;3.90;;
82635;SDS011;72317;37.280;-121.948;2023-12-04T08:10:10;7.18;;;4.00;;
82635;SDS011;72317;37.280;-121.948;2023-12-04T08:12:36;6.88;;;4.32;;
82635;SDS011;72317;37.280;-121.948;2023-12-04T08:15:03;9.02;;;3.92;;
82635;SDS011;72317;37.280;-121.948;2023-12-04T08:17:30;7.95;;;4.18;;
82635;SDS011;72317;37.280;-121.948;2023-12-04T08:19:56;8.35;;;3.95;;
82635;SDS011;72317;37.280;-121.948;2023-12-04T08:22:22;5.57;;;3.47;;
82635;SDS011;72317;37.280;-121.948;2023-12-04T08:24:48;6.30;;;3.65;;
82635;SDS011;72317;37.280;-121.948;2023-12-04T08:27:14;7.05;;;3.60;;
82635;SDS011;72317;37.280;-121.948;2023-12-04T08:29:40;6.25;;;3.70;;
82635;SDS011;72317;37.280;-121.948;2023-12-04T08:32:07;8.68;;;3.50;;
82635;SDS011;72317;37.280;-121.948;2023-12-04T08:34:33;5.60;;;3.90;;
82635;SDS011;72317;37.280;-121.948;2023-12-04T08:37:02;6.05;;;3.33;;
82635;SDS011;72317;37.280;-121.948;2023-12-04T08:39:28;8.00;;;3.67;;
82635;SDS011;72317;37.280;-121.948;2023-12-04T08:41:58;6.30;;;3.40;;
82635;SDS011;72317;37.280;-121.948;2023-12-04T08:44:24;7.28;;;3.28;;
82635;SDS011;72317;37.280;-121.948;2023-12-04T08:46:50;8.45;;;3.90;;
82635;SDS011;72317;37.280;-121.948;2023-12-04T08:49:16;6.38;;;3.67;;
82635;SDS011;72317;37.280;-121.948;2023-12-04T08:51:42;7.40;;;3.90;;
82635;SDS011;72317;37.280;-121.948;2023-12-04T08:54:08;10.35;;;4.30;;
82635;SDS011;72317;37.280;-121.948;2023-12-04T08:56:35;7.45;;;4.10;;
82635;SDS011;72317;37.280;-121.948;2023-12-04T08:59:01;10.05;;;4.53;;
82635;SDS011;72317;37.280;-121.948;2023-12-04T09:01:27;10.70;;;4.65;;
82635;SDS011;72317;37.280;-121.948;2023-12-04T09:03:55;7.80;;;5.47;;
82635;SDS011;72317;37.280;-121.948;2023-12-04T09:06:21;8.27;;;5.72;;
82635;SDS011;72317;37.280;-121.948;2023-12-04T09:08:47;11.20;;;5.53;;
82635;SDS011;72317;37.280;-121.948;2023-12-04T09:11:13;9.10;;;5.85;;
82635;SDS011;72317;37.280;-121.948;2023-12-04T09:13:39;8.18;;;5.28;;
82635;SDS011;72317;37.280;-121.948;2023-12-04T09:16:06;8.40;;;5.15;;
82635;SDS011;72317;37.280;-121.948;2023-12-04T09:18:33;8.38;;;4.80;;
82635;SDS011;72317;37.280;-121.948;2023-12-04T09:20:59;8.80;;;4.28;;
82635;SDS011;72317;37.280;-121.948;2023-12-04T09:23:26;7.72;;;3.78;;
82635;SDS011;72317;37.280;-121.948;2023-12-04T09:25:52;6.03;;;3.80;;
82635;SDS011;72317;37.280;-121.948;2023-12-04T09:28:18;5.57;;;3.55;;
82635;SDS011;72317;37.280;-121.948;2023-12-04T09:30:44;7.50;;;4.05;;
82635;SDS011;72317;37.280;-121.948;2023-12-04T09:33:10;7.78;;;3.92;;
82635;SDS011;72317;37.280;-121.948;2023-12-04T09:35:36;7.85;;;4.13;;
82635;SDS011;72317;37.280;-121.948;2023-12-04T09:38:02;5.72;;;3.40;;
82635;SDS011;72317;37.280;-121.948;2023-12-04T09:40:29;10.60;;;3.90;;
82635;SDS011;72317;37.280;-121.948;2023-12-04T09:42:55;6.07;;;3.22;;
82635;SDS011;72317;37.280;-121.948;2023-12-04T09:45:21;6.97;;;2.95;;
82635;SDS011;72317;37.280;-121.948;2023-12-04T09:47:50;7.15;;;2.92;;
82635;SDS011;72317;37.280;-121.948;2023-12-04T09:50:17;5.97;;;3.22;;
82635;SDS011;72317;37.280;-121.948;2023-12-04T09:52:49;4.50;;;3.00;;
82635;SDS011;72317;37.280;-121.948;2023-12-04T09:55:18;4.25;;;3.08;;
82635;SDS011;72317;37.280;-121.948;2023-12-04T09:57:45;5.00;;;2.80;;
82635;SDS011;72317;37.280;-121.948;2023-12-04T10:00:15;4.68;;;3.33;;
82635;SDS011;72317;37.280;-121.948;2023-12-04T10:02:42;8.05;;;3.22;;
82635;SDS011;72317;37.280;-121.948;2023-12-04T10:05:08;5.20;;;2.92;;
82635;SDS011;72317;37.280;-121.948;2023-12-04T10:07:35;6.22;;;3.28;;
82635;SDS011;72317;37.280;-121.948;2023-12-04T10:10:04;8.27;;;3.00;;
82635;SDS011;72317;37.280;-121.948;2023-12-04T10:12:31;4.45;;;3.40;;
82635;SDS011;72317;37.280;-121.948;2023-12-04T10:15:02;5.60;;;3.20;;
82635;SDS011;72317;37.280;-121.948;2023-12-04T10:17:33;5.15;;;2.78;;
82635;SDS011;72317;37.280;-121.948;2023-12-04T10:20:15;5.22;;;2.60;;
82635;SDS011;72317;37.280;-121.948;2023-12-04T10:22:55;4.47;;;2.30;;
82635;SDS011;72317;37.280;-121.948;2023-12-04T10:25:28;6.10;;;2.30;;
82635;SDS011;72317;37.280;-121.948;2023-12-04T10:28:07;4.97;;;3.00;;
82635;SDS011;72317;37.280;-121.948;2023-12-04T10:30:35;6.10;;;3.17;;
82635;SDS011;72317;37.280;-121.948;2023-12-04T10:33:02;5.50;;;3.00;;
82635;SDS011;72317;37.280;-121.948;2023-12-04T10:35:32;6.90;;;3.20;;
82635;SDS011;72317;37.280;-121.948;2023-12-04T10:38:02;6.72;;;3.30;;
82635;SDS011;72317;37.280;-121.948;2023-12-04T10:40:30;6.90;;;3.72;;
82635;SDS011;72317;37.280;-121.948;2023-12-04T10:43:31;6.38;;;3.97;;
82635;SDS011;72317;37.280;-121.948;2023-12-04T10:45:50;7.63;;;4.30;;
82635;SDS011;72317;37.280;-121.948;2023-12-04T10:48:18;10.00;;;5.40;;
82635;SDS011;72317;37.280;-121.948;2023-12-04T10:50:48;7.72;;;5.00;;
82635;SDS011;72317;37.280;-121.948;2023-12-04T10:53:15;6.35;;;4.38;;
82635;SDS011;72317;37.280;-121.948;2023-12-04T10:55:42;6.35;;;3.72;;
82635;SDS011;72317;37.280;-121.948;2023-12-04T10:58:11;6.22;;;3.10;;
82635;SDS011;72317;37.280;-121.948;2023-12-04T11:00:46;5.60;;;3.10;;
82635;SDS011;72317;37.280;-121.948;2023-12-04T11:03:18;6.72;;;3.00;;
82635;SDS011;72317;37.280;-121.948;2023-12-04T11:05:51;5.57;;;2.95;;
82635;SDS011;72317;37.280;-121.948;2023-12-04T11:08:21;7.15;;;3.00;;
82635;SDS011;72317;37.280;-121.948;2023-12-04T11:10:55;4.22;;;2.35;;
82635;SDS011;72317;37.280;-121.948;2023-12-04T11:13:27;5.90;;;2.03;;
82635;SDS011;72317;37.280;-121.948;2023-12-04T11:18:51;5.20;;;2.50;;
82635;SDS011;72317;37.280;-121.948;2023-12-04T11:21:37;4.55;;;2.30;;
82635;SDS011;72317;37.280;-121.948;2023-12-04T11:24:05;6.95;;;2.65;;
82635;SDS011;72317;37.280;-121.948;2023-12-04T11:26:33;5.00;;;2.40;;
82635;SDS011;72317;37.280;-121.948;2023-12-04T11:28:59;4.05;;;2.60;;
82635;SDS011;72317;37.280;-121.948;2023-12-04T11:31:26;4.30;;;2.30;;
82635;SDS011;72317;37.280;-121.948;2023-12-04T11:33:53;5.28;;;2.50;;
82635;SDS011;72317;37.280;-121.948;2023-12-04T11:36:27;4.68;;;2.38;;
82635;SDS011;72317;37.280;-121.948;2023-12-04T11:38:53;5.28;;;2.45;;
82635;SDS011;72317;37.280;-121.948;2023-12-04T11:41:22;5.57;;;2.10;;
82635;SDS011;72317;37.280;-121.948;2023-12-04T11:43:49;4.90;;;2.50;;
82635;SDS011;72317;37.280;-121.948;2023-12-04T11:46:20;5.53;;;2.33;;
82635;SDS011;72317;37.280;-121.948;2023-12-04T11:48:51;6.15;;;2.60;;
82635;SDS011;72317;37.280;-121.948;2023-12-04T11:54:07;6.10;;;2.40;;
82635;SDS011;72317;37.280;-121.948;2023-12-04T11:56:34;4.22;;;2.58;;
82635;SDS011;72317;37.280;-121.948;2023-12-04T11:59:03;5.15;;;2.38;;
82635;SDS011;72317;37.280;-121.948;2023-12-04T12:01:35;7.65;;;2.45;;
82635;SDS011;72317;37.280;-121.948;2023-12-04T12:04:05;5.72;;;2.80;;
82635;SDS011;72317;37.280;-121.948;2023-12-04T12:06:32;4.82;;;2.92;;
82635;SDS011;72317;37.280;-121.948;2023-12-04T12:08:58;6.57;;;2.80;;
82635;SDS011;72317;37.280;-121.948;2023-12-04T12:11:24;5.78;;;2.67;;
82635;SDS011;72317;37.280;-121.948;2023-12-04T12:13:54;4.93;;;2.40;;
82635;SDS011;72317;37.280;-121.948;2023-12-04T12:16:20;5.07;;;2.78;;
82635;SDS011;72317;37.280;-121.948;2023-12-04T12:18:47;6.72;;;3.20;;
82635;SDS011;72317;37.280;-121.948;2023-12-04T12:21:14;4.78;;;2.90;;
82635;SDS011;72317;37.280;-121.948;2023-12-04T12:23:40;4.35;;;2.70;;
82635;SDS011;72317;37.280;-121.948;2023-12-04T12:26:06;4.95;;;2.60;;
82635;SDS011;72317;37.280;-121.948;2023-12-04T12:28:34;17.52;;;15.90;;
82635;SDS011;72317;37.280;-121.948;2023-12-04T12:31:04;13.00;;;11.63;;
82635;SDS011;72317;37.280;-121.948;2023-12-04T12:33:30;33.42;;;30.00;;
82635;SDS011;72317;37.280;-121.948;2023-12-04T12:35:57;34.03;;;30.42;;
82635;SDS011;72317;37.280;-121.948;2023-12-04T12:38:25;30.63;;;27.55;;
82635;SDS011;72317;37.280;-121.948;2023-12-04T12:40:51;19.58;;;14.20;;
82635;SDS011;72317;37.280;-121.948;2023-12-04T12:43:19;9.80;;;6.15;;
82635;SDS011;72317;37.280;-121.948;2023-12-04T12:45:49;5.65;;;3.97;;
82635;SDS011;72317;37.280;-121.948;2023-12-04T12:48:16;5.72;;;3.20;;
82635;SDS011;72317;37.280;-121.948;2023-12-04T12:50:43;5.72;;;2.78;;
82635;SDS011;72317;37.280;-121.948;2023-12-04T12:53:13;6.75;;;3.22;;
82635;SDS011;72317;37.280;-121.948;2023-12-04T12:55:43;4.80;;;2.60;;
82635;SDS011;72317;37.280;-121.948;2023-12-04T12:58:10;4.65;;;2.78;;
82635;SDS011;72317;37.280;-121.948;2023-12-04T13:00:39;5.95;;;2.58;;
82635;SDS011;72317;37.280;-121.948;2023-12-04T13:03:14;5.07;;;2.63;;
82635;SDS011;72317;37.280;-121.948;2023-12-04T13:05:41;6.65;;;2.83;;
82635;SDS011;72317;37.280;-121.948;2023-12-04T13:08:08;5.68;;;2.92;;
82635;SDS011;72317;37.280;-121.948;2023-12-04T13:10:34;5.80;;;2.83;;
82635;SDS011;72317;37.280;-121.948;2023-12-04T13:13:00;4.18;;;2.30;;
82635;SDS011;72317;37.280;-121.948;2023-12-04T13:15:26;3.85;;;2.40;;
82635;SDS011;72317;37.280;-121.948;2023-12-04T13:17:52;3.88;;;2.08;;
82635;SDS011;72317;37.280;-121.948;2023-12-04T13:20:18;6.15;;;2.20;;
82635;SDS011;72317;37.280;-121.948;2023-12-04T13:22:45;2.47;;;2.28;;
82635;SDS011;72317;37.280;-121.948;2023-12-04T13:25:11;4.50;;;2.40;;
82635;SDS011;72317;37.280;-121.948;2023-12-04T13:27:37;5.80;;;2.50;;
82635;SDS011;72317;37.280;-121.948;2023-12-04T13:30:05;5.25;;;2.35;;
82635;SDS011;72317;37.280;-121.948;2023-12-04T13:32:38;4.05;;;2.20;;
82635;SDS011;72317;37.280;-121.948;2023-12-04T13:35:04;6.28;;;2.63;;
82635;SDS011;72317;37.280;-121.948;2023-12-04T13:37:33;11.73;;;3.28;;
82635;SDS011;72317;37.280;-121.948;2023-12-04T13:40:05;9.82;;;3.30;;
82635;SDS011;72317;37.280;-121.948;2023-12-04T13:42:41;16.88;;;4.22;;
82635;SDS011;72317;37.280;-121.948;2023-12-04T13:45:26;15.98;;;4.50;;
82635;SDS011;72317;37.280;-121.948;2023-12-04T13:48:12;18.92;;;4.85;;
82635;SDS011;72317;37.280;-121.948;2023-12-04T13:50:40;20.85;;;5.97;;
82635;SDS011;72317;37.280;-121.948;2023-12-04T13:53:06;21.17;;;6.15;;
82635;SDS011;72317;37.280;-121.948;2023-12-04T13:55:33;24.83;;;6.18;;
82635;SDS011;72317;37.280;-121.948;2023-12-04T13:58:22;24.38;;;6.65;;
82635;SDS011;72317;37.280;-121.948;2023-12-04T14:01:05;21.85;;;6.53;;
82635;SDS011;72317;37.280;-121.948;2023-12-04T14:03:47;23.02;;;6.25;;
82635;SDS011;72317;37.280;-121.948;2023-12-04T14:06:13;22.40;;;7.15;;
82635;SDS011;72317;37.280;-121.948;2023-12-04T14:08:41;27.40;;;7.20;;
82635;SDS011;72317;37.280;-121.948;2023-12-04T14:11:07;37.63;;;7.88;;